sensor_id;sensor_type;location;lat;lon;timestamp;pressure;altitude;pressure_sealevel;temperature;humidity
63916;BME280;50094;51.356;-0.196;2023-01-31T00:01:27;101915.60;;;26.87;23.07
63916;BME280;50094;51.356;-0.196;2023-01-31T00:03:58;101908.67;;;27.14;23.09
63916;BME280;50094;51.356;-0.196;2023-01-31T00:06:28;101912.80;;;26.89;23.08
63916;BME280;50094;51.356;-0.196;2023-01-31T00:08:57;101917.35;;;27.10;23.08
63916;BME280;50094;51.356;-0.196;2023-01-31T00:11:26;101910.83;;;27.09;23.07
63916;BME280;50094;51.356;-0.196;2023-01-31T00:13:54;101907.91;;;27.11;23.02
63916;BME280;50094;51.356;-0.196;2023-01-31T00:16:21;101905.50;;;27.09;22.99
63916;BME280;50094;51.356;-0.196;2023-01-31T00:18:49;101906.47;;;27.08;22.96
63916;BME280;50094;51.356;-0.196;2023-01-31T00:21:18;101910.04;;;27.07;22.93
63916;BME280;50094;51.356;-0.196;2023-01-31T00:23:47;101908.85;;;27.06;22.90
63916;BME280;50094;51.356;-0.196;2023-01-31T00:26:16;101910.62;;;27.02;22.89
63916;BME280;50094;51.356;-0.196;2023-01-31T00:28:47;101906.34;;;26.99;22.90
63916;BME280;50094;51.356;-0.196;2023-01-31T00:31:16;101902.70;;;26.95;22.92
63916;BME280;50094;51.356;-0.196;2023-01-31T00:33:45;101897.27;;;26.91;22.97
63916;BME280;50094;51.356;-0.196;2023-01-31T00:36:15;101881.72;;;26.86;23.01
63916;BME280;50094;51.356;-0.196;2023-01-31T00:38:43;101871.15;;;26.87;23.05
63916;BME280;50094;51.356;-0.196;2023-01-31T00:41:11;101865.03;;;26.96;23.03
63916;BME280;50094;51.356;-0.196;2023-01-31T00:43:38;101849.39;;;26.97;23.05
63916;BME280;50094;51.356;-0.196;2023-01-31T00:46:05;101853.96;;;26.96;23.05
63916;BME280;50094;51.356;-0.196;2023-01-31T00:48:33;101854.51;;;26.91;23.07
63916;BME280;50094;51.356;-0.196;2023-01-31T00:51:01;101853.86;;;26.92;23.03
63916;BME280;50094;51.356;-0.196;2023-01-31T00:53:28;101858.62;;;26.89;23.05
63916;BME280;50094;51.356;-0.196;2023-01-31T00:56:01;101862.81;;;26.90;23.03
63916;BME280;50094;51.356;-0.196;2023-01-31T00:58:28;101858.63;;;26.70;23.00
63916;BME280;50094;51.356;-0.196;2023-01-31T01:01:05;101869.96;;;26.91;22.99
63916;BME280;50094;51.356;-0.196;2023-01-31T01:03:33;101868.73;;;26.89;23.00
63916;BME280;50094;51.356;-0.196;2023-01-31T01:06:00;101860.14;;;26.87;23.01
63916;BME280;50094;51.356;-0.196;2023-01-31T01:08:28;101859.27;;;26.88;23.01
63916;BME280;50094;51.356;-0.196;2023-01-31T01:10:56;101864.91;;;26.84;23.02
63916;BME280;50094;51.356;-0.196;2023-01-31T01:13:23;101865.83;;;26.83;23.01
63916;BME280;50094;51.356;-0.196;2023-01-31T01:15:50;101877.35;;;26.82;23.01
63916;BME280;50094;51.356;-0.196;2023-01-31T01:18:17;101867.79;;;26.81;23.00
63916;BME280;50094;51.356;-0.196;2023-01-31T01:20:44;101867.13;;;26.82;22.96
63916;BME280;50094;51.356;-0.196;2023-01-31T01:23:11;101870.11;;;26.80;22.98
63916;BME280;50094;51.356;-0.196;2023-01-31T01:25:42;101861.52;;;27.06;22.97
63916;BME280;50094;51.356;-0.196;2023-01-31T01:28:10;101866.16;;;26.77;23.00
63916;BME280;50094;51.356;-0.196;2023-01-31T01:30:37;101857.32;;;26.76;23.01
63916;BME280;50094;51.356;-0.196;2023-01-31T01:33:05;101850.69;;;26.74;23.04
63916;BME280;50094;51.356;-0.196;2023-01-31T01:35:32;101844.87;;;26.77;23.02
63916;BME280;50094;51.356;-0.196;2023-01-31T01:38:00;101846.05;;;26.74;23.06
63916;BME280;50094;51.356;-0.196;2023-01-31T01:40:34;101844.91;;;26.74;23.04
63916;BME280;50094;51.356;-0.196;2023-01-31T01:43:02;101849.14;;;26.73;23.03
63916;BME280;50094;51.356;-0.196;2023-01-31T01:45:29;101848.80;;;26.73;23.04
63916;BME280;50094;51.356;-0.196;2023-01-31T01:47:59;101850.18;;;26.73;23.00
63916;BME280;50094;51.356;-0.196;2023-01-31T01:50:33;101841.42;;;26.75;22.96
63916;BME280;50094;51.356;-0.196;2023-01-31T01:53:05;101831.86;;;26.71;22.98
63916;BME280;50094;51.356;-0.196;2023-01-31T01:55:37;101835.30;;;26.74;23.00
63916;BME280;50094;51.356;-0.196;2023-01-31T01:58:08;101840.74;;;26.74;22.97
63916;BME280;50094;51.356;-0.196;2023-01-31T02:00:38;101844.23;;;26.73;22.95
63916;BME280;50094;51.356;-0.196;2023-01-31T02:03:06;101842.48;;;26.72;22.92
63916;BME280;50094;51.356;-0.196;2023-01-31T02:05:38;101846.98;;;26.70;22.91
63916;BME280;50094;51.356;-0.196;2023-01-31T02:08:06;101853.55;;;26.71;22.87
63916;BME280;50094;51.356;-0.196;2023-01-31T02:10:39;101854.25;;;26.69;22.86
63916;BME280;50094;51.356;-0.196;2023-01-31T02:13:10;101854.22;;;26.66;22.83
63916;BME280;50094;51.356;-0.196;2023-01-31T02:15:38;101848.12;;;26.68;22.81
63916;BME280;50094;51.356;-0.196;2023-01-31T02:18:05;101852.64;;;26.61;22.83
63916;BME280;50094;51.356;-0.196;2023-01-31T02:20:53;101848.14;;;26.57;22.81
63916;BME280;50094;51.356;-0.196;2023-01-31T02:24:03;101843.12;;;26.81;22.85
63916;BME280;50094;51.356;-0.196;2023-01-31T02:27:05;101837.33;;;26.55;22.86
63916;BME280;50094;51.356;-0.196;2023-01-31T02:29:53;101831.53;;;26.54;22.88
63916;BME280;50094;51.356;-0.196;2023-01-31T02:32:44;101837.89;;;26.54;22.91
63916;BME280;50094;51.356;-0.196;2023-01-31T02:35:19;101836.26;;;26.54;22.92
63916;BME280;50094;51.356;-0.196;2023-01-31T02:37:55;101839.98;;;26.54;22.91
63916;BME280;50094;51.356;-0.196;2023-01-31T02:40:34;101838.19;;;26.53;22.92
63916;BME280;50094;51.356;-0.196;2023-01-31T02:43:07;101840.15;;;26.49;22.94
63916;BME280;50094;51.356;-0.196;2023-01-31T02:45:43;101838.30;;;26.53;22.91
63916;BME280;50094;51.356;-0.196;2023-01-31T02:48:18;101839.43;;;26.49;22.94
63916;BME280;50094;51.356;-0.196;2023-01-31T02:50:59;101833.05;;;26.49;22.96
63916;BME280;50094;51.356;-0.196;2023-01-31T02:53:31;101826.65;;;26.46;23.00
63916;BME280;50094;51.356;-0.196;2023-01-31T02:56:04;101810.04;;;26.73;23.02
63916;BME280;50094;51.356;-0.196;2023-01-31T02:58:36;101802.66;;;26.48;23.02
63916;BME280;50094;51.356;-0.196;2023-01-31T03:01:05;101802.05;;;26.50;23.01
63916;BME280;50094;51.356;-0.196;2023-01-31T03:03:35;101793.72;;;26.53;22.99
63916;BME280;50094;51.356;-0.196;2023-01-31T03:06:55;101797.69;;;26.51;22.98
63916;BME280;50094;51.356;-0.196;2023-01-31T03:09:35;101799.09;;;26.80;22.92
63916;BME280;50094;51.356;-0.196;2023-01-31T03:12:15;101796.01;;;26.51;22.91
63916;BME280;50094;51.356;-0.196;2023-01-31T03:14:47;101792.17;;;26.49;22.93
63916;BME280;50094;51.356;-0.196;2023-01-31T03:17:29;101788.10;;;26.46;22.93
63916;BME280;50094;51.356;-0.196;2023-01-31T03:20:05;101782.16;;;26.45;22.93
63916;BME280;50094;51.356;-0.196;2023-01-31T03:22:36;101784.15;;;26.76;22.85
63916;BME280;50094;51.356;-0.196;2023-01-31T03:25:07;101776.60;;;26.46;22.82
63916;BME280;50094;51.356;-0.196;2023-01-31T03:27:37;101772.84;;;26.40;22.83
63916;BME280;50094;51.356;-0.196;2023-01-31T03:30:12;101770.41;;;26.37;22.83
63916;BME280;50094;51.356;-0.196;2023-01-31T03:32:44;101767.29;;;26.33;22.83
63916;BME280;50094;51.356;-0.196;2023-01-31T03:35:14;101771.23;;;26.31;22.84
63916;BME280;50094;51.356;-0.196;2023-01-31T03:37:46;101768.35;;;26.29;22.84
63916;BME280;50094;51.356;-0.196;2023-01-31T03:40:18;101777.29;;;26.29;22.87
63916;BME280;50094;51.356;-0.196;2023-01-31T03:42:50;101770.90;;;26.31;22.84
63916;BME280;50094;51.356;-0.196;2023-01-31T03:45:26;101774.97;;;26.54;22.84
63916;BME280;50094;51.356;-0.196;2023-01-31T03:47:55;101766.49;;;26.51;22.86
63916;BME280;50094;51.356;-0.196;2023-01-31T03:50:27;101761.36;;;26.48;22.91
63916;BME280;50094;51.356;-0.196;2023-01-31T03:52:59;101756.35;;;26.49;22.90
63916;BME280;50094;51.356;-0.196;2023-01-31T03:55:32;101748.05;;;26.47;22.92
63916;BME280;50094;51.356;-0.196;2023-01-31T03:58:03;101739.88;;;26.20;22.90
63916;BME280;50094;51.356;-0.196;2023-01-31T04:00:35;101728.81;;;26.26;22.90
63916;BME280;50094;51.356;-0.196;2023-01-31T04:03:09;101726.01;;;26.27;22.89
63916;BME280;50094;51.356;-0.196;2023-01-31T04:05:38;101723.79;;;26.47;22.95
63916;BME280;50094;51.356;-0.196;2023-01-31T04:08:06;101729.50;;;26.47;22.93
63916;BME280;50094;51.356;-0.196;2023-01-31T04:10:34;101727.69;;;26.64;22.97
63916;BME280;50094;51.356;-0.196;2023-01-31T04:13:01;101737.48;;;26.67;22.94
63916;BME280;50094;51.356;-0.196;2023-01-31T04:15:29;101738.65;;;26.39;23.01
63916;BME280;50094;51.356;-0.196;2023-01-31T04:17:57;101740.76;;;26.39;23.03
63916;BME280;50094;51.356;-0.196;2023-01-31T04:20:24;101741.94;;;26.42;23.01
63916;BME280;50094;51.356;-0.196;2023-01-31T04:22:51;101740.27;;;26.15;23.03
63916;BME280;50094;51.356;-0.196;2023-01-31T04:25:18;101746.84;;;26.40;23.04
63916;BME280;50094;51.356;-0.196;2023-01-31T04:27:46;101754.40;;;26.61;23.06
63916;BME280;50094;51.356;-0.196;2023-01-31T04:30:13;101746.75;;;26.40;23.07
63916;BME280;50094;51.356;-0.196;2023-01-31T04:32:40;101751.37;;;26.61;23.11
63916;BME280;50094;51.356;-0.196;2023-01-31T04:35:08;101745.84;;;26.43;23.08
63916;BME280;50094;51.356;-0.196;2023-01-31T04:37:36;101744.63;;;26.15;23.10
63916;BME280;50094;51.356;-0.196;2023-01-31T04:40:03;101744.02;;;26.16;23.08
63916;BME280;50094;51.356;-0.196;2023-01-31T04:42:30;101742.90;;;26.16;23.09
63916;BME280;50094;51.356;-0.196;2023-01-31T04:44:57;101743.70;;;26.41;23.09
63916;BME280;50094;51.356;-0.196;2023-01-31T04:47:24;101752.40;;;26.40;23.08
63916;BME280;50094;51.356;-0.196;2023-01-31T04:49:52;101748.83;;;26.13;23.09
63916;BME280;50094;51.356;-0.196;2023-01-31T04:52:18;101745.28;;;26.19;23.05
63916;BME280;50094;51.356;-0.196;2023-01-31T04:54:45;101741.56;;;26.43;23.07
63916;BME280;50094;51.356;-0.196;2023-01-31T04:57:12;101743.02;;;26.15;23.07
63916;BME280;50094;51.356;-0.196;2023-01-31T04:59:39;101735.97;;;26.12;23.08
63916;BME280;50094;51.356;-0.196;2023-01-31T05:02:06;101736.90;;;26.37;23.10
63916;BME280;50094;51.356;-0.196;2023-01-31T05:04:34;101737.61;;;26.35;23.12
63916;BME280;50094;51.356;-0.196;2023-01-31T05:07:01;101736.67;;;26.59;23.12
63916;BME280;50094;51.356;-0.196;2023-01-31T05:09:28;101732.79;;;26.36;23.16
63916;BME280;50094;51.356;-0.196;2023-01-31T05:11:56;101731.74;;;26.08;23.18
63916;BME280;50094;51.356;-0.196;2023-01-31T05:14:23;101731.00;;;26.38;23.14
63916;BME280;50094;51.356;-0.196;2023-01-31T05:16:50;101730.07;;;26.35;23.16
63916;BME280;50094;51.356;-0.196;2023-01-31T05:19:17;101733.14;;;26.12;23.12
63916;BME280;50094;51.356;-0.196;2023-01-31T05:21:44;101731.16;;;26.33;23.16
63916;BME280;50094;51.356;-0.196;2023-01-31T05:24:11;101726.06;;;26.36;23.12
63916;BME280;50094;51.356;-0.196;2023-01-31T05:26:38;101725.87;;;26.35;23.10
63916;BME280;50094;51.356;-0.196;2023-01-31T05:29:05;101729.98;;;26.32;23.10
63916;BME280;50094;51.356;-0.196;2023-01-31T05:31:32;101736.44;;;26.52;23.12
63916;BME280;50094;51.356;-0.196;2023-01-31T05:34:00;101736.32;;;26.26;23.14
63916;BME280;50094;51.356;-0.196;2023-01-31T05:36:28;101737.34;;;26.26;23.15
63916;BME280;50094;51.356;-0.196;2023-01-31T05:38:54;101727.43;;;26.00;23.18
63916;BME280;50094;51.356;-0.196;2023-01-31T05:41:21;101723.16;;;26.07;23.18
63916;BME280;50094;51.356;-0.196;2023-01-31T05:43:48;101718.11;;;26.33;23.20
63916;BME280;50094;51.356;-0.196;2023-01-31T05:46:16;101712.39;;;26.08;23.23
63916;BME280;50094;51.356;-0.196;2023-01-31T05:48:43;101707.98;;;26.36;23.29
63916;BME280;50094;51.356;-0.196;2023-01-31T05:51:09;101706.49;;;26.42;23.30
63916;BME280;50094;51.356;-0.196;2023-01-31T05:53:36;101703.70;;;26.45;23.32
63916;BME280;50094;51.356;-0.196;2023-01-31T05:56:03;101695.42;;;26.22;23.34
63916;BME280;50094;51.356;-0.196;2023-01-31T05:58:31;101688.79;;;26.53;23.36
63916;BME280;50094;51.356;-0.196;2023-01-31T06:00:58;101692.00;;;26.55;23.36
63916;BME280;50094;51.356;-0.196;2023-01-31T06:03:25;101683.84;;;26.60;23.34
63916;BME280;50094;51.356;-0.196;2023-01-31T06:05:52;101690.66;;;26.38;23.32
63916;BME280;50094;51.356;-0.196;2023-01-31T06:08:20;101683.28;;;26.38;23.34
63916;BME280;50094;51.356;-0.196;2023-01-31T06:10:47;101690.04;;;26.41;23.33
63916;BME280;50094;51.356;-0.196;2023-01-31T06:13:14;101688.27;;;26.63;23.38
63916;BME280;50094;51.356;-0.196;2023-01-31T06:15:42;101682.32;;;26.86;23.40
63916;BME280;50094;51.356;-0.196;2023-01-31T06:18:09;101678.24;;;26.44;23.36
63916;BME280;50094;51.356;-0.196;2023-01-31T06:20:36;101676.87;;;26.38;23.39
63916;BME280;50094;51.356;-0.196;2023-01-31T06:23:03;101674.69;;;26.39;23.41
63916;BME280;50094;51.356;-0.196;2023-01-31T06:25:31;101675.08;;;26.65;23.45
63916;BME280;50094;51.356;-0.196;2023-01-31T06:27:58;101682.73;;;26.37;23.49
63916;BME280;50094;51.356;-0.196;2023-01-31T06:30:25;101689.60;;;26.91;23.51
63916;BME280;50094;51.356;-0.196;2023-01-31T06:32:52;101688.52;;;26.48;23.51
63916;BME280;50094;51.356;-0.196;2023-01-31T06:35:18;101695.17;;;26.75;23.51
63916;BME280;50094;51.356;-0.196;2023-01-31T06:37:45;101694.92;;;26.54;23.47
63916;BME280;50094;51.356;-0.196;2023-01-31T06:40:12;101685.41;;;26.58;23.43
63916;BME280;50094;51.356;-0.196;2023-01-31T06:42:39;101684.76;;;26.56;23.42
63916;BME280;50094;51.356;-0.196;2023-01-31T06:45:08;101689.21;;;26.58;23.38
63916;BME280;50094;51.356;-0.196;2023-01-31T06:47:35;101686.70;;;26.55;23.40
63916;BME280;50094;51.356;-0.196;2023-01-31T06:50:03;101689.84;;;26.53;23.40
63916;BME280;50094;51.356;-0.196;2023-01-31T06:52:30;101689.98;;;26.58;23.37
63916;BME280;50094;51.356;-0.196;2023-01-31T06:54:57;101692.06;;;26.53;23.37
63916;BME280;50094;51.356;-0.196;2023-01-31T06:57:24;101691.26;;;26.56;23.34
63916;BME280;50094;51.356;-0.196;2023-01-31T06:59:51;101683.65;;;26.55;23.34
63916;BME280;50094;51.356;-0.196;2023-01-31T07:02:18;101686.08;;;26.54;23.32
63916;BME280;50094;51.356;-0.196;2023-01-31T07:04:44;101683.89;;;26.78;23.32
63916;BME280;50094;51.356;-0.196;2023-01-31T07:07:12;101679.41;;;26.49;23.32
63916;BME280;50094;51.356;-0.196;2023-01-31T07:09:39;101678.40;;;26.48;23.31
63916;BME280;50094;51.356;-0.196;2023-01-31T07:12:06;101676.23;;;26.45;23.31
63916;BME280;50094;51.356;-0.196;2023-01-31T07:14:33;101679.59;;;26.42;23.32
63916;BME280;50094;51.356;-0.196;2023-01-31T07:17:01;101670.79;;;26.46;23.30
63916;BME280;50094;51.356;-0.196;2023-01-31T07:19:29;101666.01;;;26.44;23.30
63916;BME280;50094;51.356;-0.196;2023-01-31T07:21:56;101669.32;;;26.44;23.27
63916;BME280;50094;51.356;-0.196;2023-01-31T07:24:23;101667.26;;;26.70;23.25
63916;BME280;50094;51.356;-0.196;2023-01-31T07:26:51;101664.06;;;26.37;23.28
63916;BME280;50094;51.356;-0.196;2023-01-31T07:29:18;101666.65;;;26.63;23.29
63916;BME280;50094;51.356;-0.196;2023-01-31T07:31:45;101668.94;;;26.34;23.28
63916;BME280;50094;51.356;-0.196;2023-01-31T07:34:12;101670.21;;;26.57;23.30
63916;BME280;50094;51.356;-0.196;2023-01-31T07:36:40;101672.47;;;26.34;23.29
63916;BME280;50094;51.356;-0.196;2023-01-31T07:39:07;101672.51;;;26.77;23.31
63916;BME280;50094;51.356;-0.196;2023-01-31T07:41:34;101671.92;;;26.59;23.28
63916;BME280;50094;51.356;-0.196;2023-01-31T07:44:01;101670.65;;;26.55;23.30
63916;BME280;50094;51.356;-0.196;2023-01-31T07:46:28;101663.14;;;26.51;23.32
63916;BME280;50094;51.356;-0.196;2023-01-31T07:48:56;101660.79;;;26.21;23.41
63916;BME280;50094;51.356;-0.196;2023-01-31T07:51:22;101662.64;;;26.24;23.45
63916;BME280;50094;51.356;-0.196;2023-01-31T07:53:49;101661.62;;;26.47;23.50
63916;BME280;50094;51.356;-0.196;2023-01-31T07:56:19;101666.67;;;26.45;23.55
63916;BME280;50094;51.356;-0.196;2023-01-31T07:58:48;101659.73;;;26.19;23.58
63916;BME280;50094;51.356;-0.196;2023-01-31T08:01:18;101658.09;;;26.19;23.60
63916;BME280;50094;51.356;-0.196;2023-01-31T08:03:45;101667.23;;;26.46;23.61
63916;BME280;50094;51.356;-0.196;2023-01-31T08:06:13;101667.96;;;26.21;23.62
63916;BME280;50094;51.356;-0.196;2023-01-31T08:08:42;101672.87;;;26.46;23.63
63916;BME280;50094;51.356;-0.196;2023-01-31T08:11:10;101678.57;;;26.68;23.63
63916;BME280;50094;51.356;-0.196;2023-01-31T08:13:37;101681.58;;;26.69;23.62
63916;BME280;50094;51.356;-0.196;2023-01-31T08:16:07;101679.02;;;26.14;23.63
63916;BME280;50094;51.356;-0.196;2023-01-31T08:18:35;101676.64;;;26.37;23.65
63916;BME280;50094;51.356;-0.196;2023-01-31T08:21:03;101684.45;;;26.37;23.67
63916;BME280;50094;51.356;-0.196;2023-01-31T08:23:32;101689.68;;;26.37;23.68
63916;BME280;50094;51.356;-0.196;2023-01-31T08:26:01;101680.14;;;26.57;23.70
63916;BME280;50094;51.356;-0.196;2023-01-31T08:28:30;101678.16;;;26.10;23.68
63916;BME280;50094;51.356;-0.196;2023-01-31T08:30:57;101682.81;;;26.34;23.70
63916;BME280;50094;51.356;-0.196;2023-01-31T08:33:25;101679.81;;;26.34;23.70
63916;BME280;50094;51.356;-0.196;2023-01-31T08:35:53;101673.18;;;26.30;23.71
63916;BME280;50094;51.356;-0.196;2023-01-31T08:38:20;101667.60;;;26.05;23.73
63916;BME280;50094;51.356;-0.196;2023-01-31T08:40:48;101673.67;;;26.04;23.74
63916;BME280;50094;51.356;-0.196;2023-01-31T08:43:15;101663.21;;;26.34;23.71
63916;BME280;50094;51.356;-0.196;2023-01-31T08:45:42;101657.78;;;26.58;23.68
63916;BME280;50094;51.356;-0.196;2023-01-31T08:48:11;101653.09;;;26.36;23.65
63916;BME280;50094;51.356;-0.196;2023-01-31T08:50:38;101649.79;;;26.55;23.65
63916;BME280;50094;51.356;-0.196;2023-01-31T08:53:05;101643.73;;;26.32;23.67
63916;BME280;50094;51.356;-0.196;2023-01-31T08:55:39;101666.56;;;26.26;23.71
63916;BME280;50094;51.356;-0.196;2023-01-31T08:58:06;101664.42;;;26.52;23.69
63916;BME280;50094;51.356;-0.196;2023-01-31T09:00:38;101674.86;;;26.34;23.64
63916;BME280;50094;51.356;-0.196;2023-01-31T09:03:06;101670.09;;;26.32;23.61
63916;BME280;50094;51.356;-0.196;2023-01-31T09:05:32;101674.07;;;26.27;23.63
63916;BME280;50094;51.356;-0.196;2023-01-31T09:07:59;101671.17;;;25.98;23.63
63916;BME280;50094;51.356;-0.196;2023-01-31T09:10:26;101670.50;;;26.22;23.65
63916;BME280;50094;51.356;-0.196;2023-01-31T09:12:59;101655.91;;;26.29;23.62
63916;BME280;50094;51.356;-0.196;2023-01-31T09:15:27;101648.95;;;26.50;23.61
63916;BME280;50094;51.356;-0.196;2023-01-31T09:17:54;101651.22;;;26.47;23.63
63916;BME280;50094;51.356;-0.196;2023-01-31T09:20:21;101648.01;;;26.48;23.61
63916;BME280;50094;51.356;-0.196;2023-01-31T09:22:48;101652.65;;;26.20;23.63
63916;BME280;50094;51.356;-0.196;2023-01-31T09:25:15;101655.84;;;26.17;23.67
63916;BME280;50094;51.356;-0.196;2023-01-31T09:27:43;101658.87;;;26.22;23.65
63916;BME280;50094;51.356;-0.196;2023-01-31T09:30:10;101647.12;;;26.42;23.68
63916;BME280;50094;51.356;-0.196;2023-01-31T09:32:38;101639.05;;;26.44;23.65
63916;BME280;50094;51.356;-0.196;2023-01-31T09:35:06;101638.89;;;26.44;23.59
63916;BME280;50094;51.356;-0.196;2023-01-31T09:37:38;101631.14;;;26.37;23.61
63916;BME280;50094;51.356;-0.196;2023-01-31T09:40:06;101634.82;;;25.86;23.62
63916;BME280;50094;51.356;-0.196;2023-01-31T09:42:37;101636.89;;;26.15;23.64
63916;BME280;50094;51.356;-0.196;2023-01-31T09:45:12;101631.06;;;26.17;23.64
63916;BME280;50094;51.356;-0.196;2023-01-31T09:47:43;101636.88;;;26.36;23.67
63916;BME280;50094;51.356;-0.196;2023-01-31T09:50:20;101640.84;;;26.37;23.65
63916;BME280;50094;51.356;-0.196;2023-01-31T09:52:48;101643.82;;;25.89;23.64
63916;BME280;50094;51.356;-0.196;2023-01-31T09:55:17;101641.74;;;26.34;23.70
63916;BME280;50094;51.356;-0.196;2023-01-31T09:57:50;101644.66;;;26.16;23.69
63916;BME280;50094;51.356;-0.196;2023-01-31T10:00:26;101644.00;;;26.36;23.70
63916;BME280;50094;51.356;-0.196;2023-01-31T10:03:06;101645.22;;;26.13;23.72
63916;BME280;50094;51.356;-0.196;2023-01-31T10:05:43;101647.34;;;26.35;23.74
63916;BME280;50094;51.356;-0.196;2023-01-31T10:08:19;101646.81;;;25.88;23.74
63916;BME280;50094;51.356;-0.196;2023-01-31T10:10:50;101653.19;;;25.90;23.70
63916;BME280;50094;51.356;-0.196;2023-01-31T10:13:22;101660.13;;;25.88;23.70
63916;BME280;50094;51.356;-0.196;2023-01-31T10:15:55;101671.59;;;25.89;23.67
63916;BME280;50094;51.356;-0.196;2023-01-31T10:18:28;101678.70;;;25.86;23.69
63916;BME280;50094;51.356;-0.196;2023-01-31T10:21:00;101675.87;;;26.32;23.71
63916;BME280;50094;51.356;-0.196;2023-01-31T10:23:34;101680.16;;;26.12;23.70
63916;BME280;50094;51.356;-0.196;2023-01-31T10:26:07;101680.36;;;26.10;23.74
63916;BME280;50094;51.356;-0.196;2023-01-31T10:28:38;101683.72;;;26.10;23.74
63916;BME280;50094;51.356;-0.196;2023-01-31T10:31:14;101684.16;;;26.28;23.76
63916;BME280;50094;51.356;-0.196;2023-01-31T10:33:48;101682.39;;;26.26;23.79
63916;BME280;50094;51.356;-0.196;2023-01-31T10:36:25;101681.30;;;26.07;23.77
63916;BME280;50094;51.356;-0.196;2023-01-31T10:39:00;101681.42;;;26.10;23.75
63916;BME280;50094;51.356;-0.196;2023-01-31T10:41:37;101677.59;;;26.06;23.77
63916;BME280;50094;51.356;-0.196;2023-01-31T10:44:16;101674.89;;;26.05;23.77
63916;BME280;50094;51.356;-0.196;2023-01-31T10:46:46;101671.32;;;26.24;23.79
63916;BME280;50094;51.356;-0.196;2023-01-31T10:49:13;101669.31;;;26.22;23.83
63916;BME280;50094;51.356;-0.196;2023-01-31T10:51:54;101666.28;;;26.01;23.85
63916;BME280;50094;51.356;-0.196;2023-01-31T10:54:39;101663.88;;;26.24;23.84
63916;BME280;50094;51.356;-0.196;2023-01-31T10:57:08;101662.67;;;25.99;23.87
63916;BME280;50094;51.356;-0.196;2023-01-31T10:59:39;101655.56;;;26.22;23.89
63916;BME280;50094;51.356;-0.196;2023-01-31T11:02:17;101658.95;;;26.03;23.89
63916;BME280;50094;51.356;-0.196;2023-01-31T11:04:45;101648.35;;;26.03;23.89
63916;BME280;50094;51.356;-0.196;2023-01-31T11:07:13;101649.14;;;26.03;23.91
63916;BME280;50094;51.356;-0.196;2023-01-31T11:09:43;101645.44;;;26.27;23.90
63916;BME280;50094;51.356;-0.196;2023-01-31T11:12:12;101650.45;;;26.01;23.93
63916;BME280;50094;51.356;-0.196;2023-01-31T11:14:39;101643.15;;;26.26;23.93
63916;BME280;50094;51.356;-0.196;2023-01-31T11:17:12;101642.34;;;26.25;23.95
63916;BME280;50094;51.356;-0.196;2023-01-31T11:19:44;101643.43;;;26.26;23.94
63916;BME280;50094;51.356;-0.196;2023-01-31T11:22:22;101643.95;;;26.05;23.93
63916;BME280;50094;51.356;-0.196;2023-01-31T11:24:50;101640.96;;;26.05;23.94
63916;BME280;50094;51.356;-0.196;2023-01-31T11:27:24;101637.07;;;26.25;23.96
63916;BME280;50094;51.356;-0.196;2023-01-31T11:29:53;101632.42;;;26.28;23.99
63916;BME280;50094;51.356;-0.196;2023-01-31T11:32:22;101628.04;;;25.81;23.98
63916;BME280;50094;51.356;-0.196;2023-01-31T11:34:56;101622.78;;;26.03;24.02
63916;BME280;50094;51.356;-0.196;2023-01-31T11:37:25;101615.82;;;26.00;24.05
63916;BME280;50094;51.356;-0.196;2023-01-31T11:39:57;101608.91;;;26.05;24.03
63916;BME280;50094;51.356;-0.196;2023-01-31T11:42:25;101606.84;;;26.06;24.05
63916;BME280;50094;51.356;-0.196;2023-01-31T11:44:55;101608.94;;;26.28;24.05
63916;BME280;50094;51.356;-0.196;2023-01-31T11:47:31;101607.06;;;26.28;24.06
63916;BME280;50094;51.356;-0.196;2023-01-31T11:50:00;101601.91;;;26.28;24.06
63916;BME280;50094;51.356;-0.196;2023-01-31T11:52:30;101596.81;;;26.26;24.07
63916;BME280;50094;51.356;-0.196;2023-01-31T11:55:00;101597.06;;;26.02;24.09
63916;BME280;50094;51.356;-0.196;2023-01-31T11:57:32;101591.68;;;26.23;24.10
63916;BME280;50094;51.356;-0.196;2023-01-31T12:00:03;101589.27;;;26.23;24.12
63916;BME280;50094;51.356;-0.196;2023-01-31T12:02:35;101587.74;;;26.02;24.14
63916;BME280;50094;51.356;-0.196;2023-01-31T12:05:08;101586.13;;;26.23;24.16
63916;BME280;50094;51.356;-0.196;2023-01-31T12:07:44;101588.33;;;26.26;24.15
63916;BME280;50094;51.356;-0.196;2023-01-31T12:10:32;101585.53;;;26.04;24.16
63916;BME280;50094;51.356;-0.196;2023-01-31T12:13:02;101573.39;;;26.29;24.16
63916;BME280;50094;51.356;-0.196;2023-01-31T12:15:44;101568.55;;;26.06;24.16
63916;BME280;50094;51.356;-0.196;2023-01-31T12:18:12;101561.31;;;26.27;24.17
63916;BME280;50094;51.356;-0.196;2023-01-31T12:20:47;101559.90;;;26.02;24.20
63916;BME280;50094;51.356;-0.196;2023-01-31T12:23:26;101562.40;;;26.28;24.19
63916;BME280;50094;51.356;-0.196;2023-01-31T12:26:07;101558.05;;;26.29;24.20
63916;BME280;50094;51.356;-0.196;2023-01-31T12:28:49;101554.71;;;26.30;24.18
63916;BME280;50094;51.356;-0.196;2023-01-31T12:31:45;101552.28;;;26.30;24.16
63916;BME280;50094;51.356;-0.196;2023-01-31T12:34:24;101554.28;;;26.04;24.18
63916;BME280;50094;51.356;-0.196;2023-01-31T12:37:09;101548.27;;;26.07;24.20
63916;BME280;50094;51.356;-0.196;2023-01-31T12:39:50;101545.39;;;26.30;24.21
63916;BME280;50094;51.356;-0.196;2023-01-31T12:42:31;101538.15;;;26.25;24.24
63916;BME280;50094;51.356;-0.196;2023-01-31T12:45:13;101533.68;;;25.79;24.22
63916;BME280;50094;51.356;-0.196;2023-01-31T12:47:58;101535.08;;;26.04;24.22
63916;BME280;50094;51.356;-0.196;2023-01-31T12:50:31;101539.65;;;26.02;24.22
63916;BME280;50094;51.356;-0.196;2023-01-31T12:53:29;101537.46;;;26.23;24.22
63916;BME280;50094;51.356;-0.196;2023-01-31T12:56:11;101532.27;;;26.17;24.26
63916;BME280;50094;51.356;-0.196;2023-01-31T12:58:47;101538.77;;;26.17;24.25